Terminal Aerodrome Forecast
Issued by NWS

Home | Current Version | Previous Version | Text Only | Print | Product List | Glossary On
Versions: 1 2 3 4 5 6 7 8 9 10 11 12 13 14 15 16 17 18 19 20 21 22 23 24 25 26 27 28 29 30 31 32
000
FTUS41 KOKX 262320
TAFSWF
TAF
KSWF 262320Z 2700/2806 VRB03KT 2SM BR OVC005
     FM270300 VRB02KT 1SM BR OVC003
     FM270500 VRB02KT 1/2SM FG OVC003
     FM271300 VRB02KT 2SM BR BKN003 OVC009
     FM271500 17005KT P6SM FEW008 SCT012 BKN025
     FM271900 16007KT P6SM SCT015 BKN030
     FM272200 16008KT 5SM BR BKN015 OVC030
      AMD NOT SKED=

USA.gov is the U.S. government's official web portal to all federal, state and local government web resources and services.